createdAt,value
2019-01-02T00:00:10.639Z,11.78
2019-01-02T00:02:51.594Z,9.60
2019-01-02T00:05:32.110Z,10.65
2019-01-02T00:08:13.025Z,9.88
2019-01-02T00:10:53.910Z,11.25
2019-01-02T00:13:34.863Z,8.95
2019-01-02T00:16:15.910Z,6.78
2019-01-02T00:18:57.525Z,10.53
2019-01-02T00:21:38.773Z,11.35
2019-01-02T00:24:19.769Z,9.65
2019-01-02T00:27:00.624Z,8.93
2019-01-02T00:29:41.767Z,10.37
2019-01-02T00:32:23.985Z,8.93
2019-01-02T00:35:04.842Z,8.13
2019-01-02T00:37:46.431Z,8.85
2019-01-02T00:40:28.163Z,9.53
2019-01-02T00:43:08.579Z,7.62
2019-01-02T00:45:49.687Z,11.55
2019-01-02T00:48:30.553Z,9.73
2019-01-02T00:51:11.551Z,11.03
2019-01-02T00:53:52.395Z,7.65
2019-01-02T00:56:33.659Z,8.90
2019-01-02T00:59:15.127Z,8.58
2019-01-02T01:01:55.603Z,8.63
2019-01-02T01:04:37.230Z,8.17
2019-01-02T01:07:17.953Z,7.42
2019-01-02T01:09:59.139Z,8.63
2019-01-02T01:12:41.199Z,10.17
2019-01-02T01:15:22.296Z,8.25
2019-01-02T01:18:04.488Z,9.55
2019-01-02T01:20:34.075Z,9.80
2019-01-02T01:23:22.243Z,7.83
2019-01-02T01:26:10.358Z,11.50
2019-01-02T01:28:53.043Z,11.73
2019-01-02T01:31:33.832Z,10.70
2019-01-02T01:34:14.618Z,11.93
2019-01-02T01:36:55.390Z,12.98
2019-01-02T01:39:36.220Z,7.90
2019-01-02T01:42:17.015Z,6.33
2019-01-02T01:44:57.721Z,10.05
2019-01-02T01:47:38.319Z,8.50
2019-01-02T01:50:19.585Z,10.20
2019-01-02T01:53:00.297Z,11.15
2019-01-02T01:55:41.315Z,9.63
2019-01-02T01:58:22.071Z,9.58
2019-01-02T02:01:02.828Z,9.85
2019-01-02T02:03:44.172Z,10.10
2019-01-02T02:06:25.633Z,10.43
2019-01-02T02:09:06.826Z,9.43
2019-01-02T02:11:48.407Z,7.75
2019-01-02T02:14:29.443Z,10.85
2019-01-02T02:17:10.356Z,9.43
2019-01-02T02:19:51.274Z,9.60
2019-01-02T02:22:32.495Z,8.90
2019-01-02T02:25:13.101Z,7.72
2019-01-02T02:27:53.980Z,7.08
2019-01-02T02:30:34.780Z,8.93
2019-01-02T02:33:15.518Z,6.05
2019-01-02T02:35:56.966Z,7.47
2019-01-02T02:38:38.584Z,6.67
2019-01-02T02:41:19.350Z,9.13
2019-01-02T02:44:00.602Z,7.60
2019-01-02T02:46:41.746Z,5.92
2019-01-02T02:49:22.748Z,7.10
2019-01-02T02:52:03.468Z,7.78
2019-01-02T02:54:44.180Z,7.85
2019-01-02T02:57:25.485Z,7.53
2019-01-02T03:00:06.726Z,8.10
2019-01-02T03:02:47.451Z,7.35
2019-01-02T03:05:27.893Z,7.93
2019-01-02T03:08:08.747Z,6.47
2019-01-02T03:10:49.408Z,7.60
2019-01-02T03:13:30.967Z,6.33
2019-01-02T03:16:11.958Z,10.40
2019-01-02T03:18:52.903Z,8.35
2019-01-02T03:21:33.901Z,7.37
2019-01-02T03:24:14.630Z,5.80
2019-01-02T03:26:55.570Z,5.78
2019-01-02T03:29:36.442Z,5.78
2019-01-02T03:32:17.201Z,6.33
2019-01-02T03:34:58.100Z,6.35
2019-01-02T03:37:27.042Z,6.60
2019-01-02T03:43:08.928Z,5.58
2019-01-02T03:45:49.834Z,6.50
2019-01-02T03:48:30.530Z,5.70
2019-01-02T03:51:11.509Z,6.62
2019-01-02T03:53:52.819Z,4.53
2019-01-02T03:56:33.527Z,5.53
2019-01-02T03:59:14.586Z,6.35
2019-01-02T04:01:55.151Z,6.70
2019-01-02T04:04:36.504Z,5.28
2019-01-02T04:07:17.131Z,5.70
2019-01-02T04:09:58.039Z,4.40
2019-01-02T04:12:39.211Z,3.58
2019-01-02T04:15:20.026Z,4.95
2019-01-02T04:18:01.114Z,6.85
2019-01-02T04:20:41.979Z,3.10
2019-01-02T04:23:22.984Z,5.27
2019-01-02T04:26:04.147Z,4.87
2019-01-02T04:28:44.999Z,2.95
2019-01-02T04:31:25.733Z,4.92
2019-01-02T04:34:06.249Z,3.17
2019-01-02T04:36:47.295Z,4.50
2019-01-02T04:39:28.202Z,2.80
2019-01-02T04:42:08.971Z,4.80
2019-01-02T04:44:49.872Z,2.50
2019-01-02T04:47:30.655Z,3.50
2019-01-02T04:50:11.516Z,4.78
2019-01-02T04:52:52.570Z,3.77
2019-01-02T04:55:33.467Z,3.70
2019-01-02T04:58:14.371Z,4.22
2019-01-02T05:00:55.642Z,3.83
2019-01-02T05:03:36.632Z,2.93
2019-01-02T05:06:17.218Z,3.50
2019-01-02T05:08:57.949Z,4.10
2019-01-02T05:11:38.832Z,4.35
2019-01-02T05:14:19.889Z,3.47
2019-01-02T05:17:01.154Z,3.52
2019-01-02T05:19:42.170Z,3.72
2019-01-02T05:22:22.559Z,3.62
2019-01-02T05:25:03.878Z,3.67
2019-01-02T05:27:44.925Z,3.37
2019-01-02T05:30:25.615Z,3.80
2019-01-02T05:33:06.081Z,5.10
2019-01-02T05:35:46.916Z,4.62
2019-01-02T05:38:27.422Z,5.22
2019-01-02T05:41:08.042Z,3.27
2019-01-02T05:43:48.860Z,4.87
2019-01-02T05:46:29.737Z,3.50
2019-01-02T05:49:10.507Z,2.70
2019-01-02T05:51:39.485Z,4.87
2019-01-02T05:54:20.221Z,5.37
2019-01-02T05:57:00.994Z,5.50
2019-01-02T05:59:41.895Z,4.83
2019-01-02T06:02:22.969Z,2.65
2019-01-02T06:05:03.567Z,4.37
2019-01-02T06:07:44.720Z,3.27
2019-01-02T06:10:25.280Z,2.95
2019-01-02T06:13:06.017Z,2.85
2019-01-02T06:15:46.923Z,3.12
2019-01-02T06:18:27.394Z,3.35
2019-01-02T06:21:08.455Z,3.12
2019-01-02T06:23:49.441Z,2.60
2019-01-02T06:26:30.337Z,3.30
2019-01-02T06:29:11.303Z,3.67
2019-01-02T06:31:51.945Z,3.35
2019-01-02T06:34:32.507Z,3.15
2019-01-02T06:37:13.009Z,3.62
2019-01-02T06:39:54.802Z,3.27
2019-01-02T06:42:35.176Z,2.55
2019-01-02T06:45:16.514Z,3.70
2019-01-02T06:47:57.161Z,2.45
2019-01-02T06:50:38.160Z,2.92
2019-01-02T06:53:18.933Z,4.05
2019-01-02T06:55:59.782Z,4.15
2019-01-02T06:58:40.793Z,2.98
2019-01-02T07:01:21.910Z,2.92
2019-01-02T07:04:02.762Z,3.10
2019-01-02T07:06:43.495Z,3.20
2019-01-02T07:09:24.359Z,2.83
2019-01-02T07:12:05.029Z,2.67
2019-01-02T07:14:45.691Z,2.33
2019-01-02T07:17:26.463Z,3.35
2019-01-02T07:20:07.332Z,3.22
2019-01-02T07:22:48.190Z,2.75
2019-01-02T07:25:28.984Z,2.60
2019-01-02T07:28:09.371Z,3.40
2019-01-02T07:30:50.016Z,4.35
2019-01-02T07:33:30.884Z,2.25
2019-01-02T07:36:12.189Z,2.42
2019-01-02T07:38:53.265Z,2.50
2019-01-02T07:41:34.716Z,3.70
2019-01-02T07:44:15.185Z,3.70
2019-01-02T07:46:55.881Z,3.15
2019-01-02T07:49:36.687Z,4.30
2019-01-02T07:52:17.575Z,3.12
2019-01-02T07:54:58.461Z,2.90
2019-01-02T07:57:39.206Z,2.30
2019-01-02T08:00:19.982Z,2.30
2019-01-02T08:03:00.798Z,2.52
2019-01-02T08:05:41.508Z,4.03
2019-01-02T08:08:22.437Z,2.85
2019-01-02T08:11:03.424Z,3.12
2019-01-02T08:13:44.547Z,2.55
2019-01-02T08:16:25.427Z,3.12
2019-01-02T08:19:06.379Z,2.80
2019-01-02T08:21:47.116Z,2.92
2019-01-02T08:24:27.708Z,2.98
2019-01-02T08:27:08.755Z,2.87
2019-01-02T08:29:49.534Z,2.40
2019-01-02T08:32:30.491Z,2.70
2019-01-02T08:35:11.306Z,2.52
2019-01-02T08:37:52.293Z,3.40
2019-01-02T08:40:33.100Z,2.15
2019-01-02T08:43:13.922Z,2.40
2019-01-02T08:45:54.723Z,2.58
2019-01-02T08:48:35.509Z,2.10
2019-01-02T08:51:16.420Z,2.45
2019-01-02T08:53:57.106Z,2.95
2019-01-02T08:56:37.686Z,2.20
2019-01-02T08:59:18.196Z,2.40
2019-01-02T09:01:58.698Z,2.47
2019-01-02T09:04:39.554Z,1.90
2019-01-02T09:07:42.310Z,2.37
2019-01-02T09:10:23.522Z,1.82
2019-01-02T09:13:04.110Z,2.10
2019-01-02T09:15:44.599Z,2.10
2019-01-02T09:18:25.190Z,1.90
2019-01-02T09:21:06.320Z,2.40
2019-01-02T09:23:53.909Z,2.10
2019-01-02T09:26:34.411Z,2.33
2019-01-02T09:29:15.050Z,2.30
2019-01-02T09:31:55.621Z,1.98
2019-01-02T09:34:36.137Z,2.23
2019-01-02T09:37:16.834Z,2.10
2019-01-02T09:39:57.603Z,2.00
2019-01-02T09:42:38.242Z,2.10
2019-01-02T09:45:17.956Z,2.00
2019-01-02T09:47:59.209Z,2.50
2019-01-02T09:50:40.471Z,2.42
2019-01-02T09:53:22.095Z,2.00
2019-01-02T09:56:03.218Z,2.20
2019-01-02T09:58:44.199Z,2.00
2019-01-02T10:01:25.569Z,2.20
2019-01-02T10:04:06.188Z,2.20
2019-01-02T10:06:46.992Z,2.37
2019-01-02T10:09:27.693Z,2.15
2019-01-02T10:12:08.478Z,2.22
2019-01-02T10:14:49.247Z,2.30
2019-01-02T10:17:28.060Z,2.47
2019-01-02T10:20:08.073Z,2.35
2019-01-02T10:22:49.280Z,2.12
2019-01-02T10:25:30.331Z,2.00
2019-01-02T10:28:11.594Z,2.22
2019-01-02T10:30:53.059Z,2.17
2019-01-02T10:33:34.463Z,2.40
2019-01-02T10:36:14.942Z,2.70
2019-01-02T10:38:55.782Z,2.00
2019-01-02T10:41:36.846Z,2.62
2019-01-02T10:44:17.424Z,2.27
2019-01-02T10:46:58.287Z,2.30
2019-01-02T10:49:39.179Z,2.17
2019-01-02T10:52:20.034Z,2.10
2019-01-02T10:55:00.941Z,2.33
2019-01-02T10:57:41.749Z,2.17
2019-01-02T11:00:22.415Z,2.00
2019-01-02T11:03:03.178Z,2.27
2019-01-02T11:05:44.131Z,1.90
2019-01-02T11:08:25.261Z,1.98
2019-01-02T11:11:05.988Z,2.33
2019-01-02T11:13:46.872Z,2.17
2019-01-02T11:16:27.635Z,2.10
2019-01-02T11:19:08.284Z,2.30
2019-01-02T11:21:49.419Z,2.12
2019-01-02T11:24:30.187Z,1.93
2019-01-02T11:27:11.112Z,2.00
2019-01-02T11:29:51.593Z,2.22
2019-01-02T11:32:32.463Z,2.15
2019-01-02T11:35:13.129Z,1.98
2019-01-02T11:37:53.876Z,2.20
2019-01-02T11:40:34.877Z,2.00
2019-01-02T11:43:15.717Z,1.80
2019-01-02T11:45:56.689Z,2.35
2019-01-02T11:48:37.562Z,2.05
2019-01-02T11:51:19.153Z,1.98
2019-01-02T11:54:00.393Z,2.15
2019-01-02T11:56:41.311Z,2.10
2019-01-02T11:59:22.081Z,1.65
2019-01-02T12:02:02.947Z,1.85
2019-01-02T12:04:43.761Z,2.05
2019-01-02T12:07:24.573Z,1.85
2019-01-02T12:10:05.294Z,1.92
2019-01-02T12:12:45.935Z,1.70
2019-01-02T12:15:27.054Z,1.82
2019-01-02T12:17:55.978Z,1.80
2019-01-02T12:20:44.147Z,1.65
2019-01-02T12:23:32.198Z,1.80
2019-01-02T12:26:13.202Z,1.98
2019-01-02T12:28:54.007Z,1.80
2019-01-02T12:31:35.060Z,1.40
2019-01-02T12:34:16.452Z,1.52
2019-01-02T12:36:57.266Z,1.97
2019-01-02T12:39:38.172Z,1.63
2019-01-02T12:42:19.190Z,2.10
2019-01-02T12:45:00.172Z,1.70
2019-01-02T12:47:40.956Z,1.70
2019-01-02T12:50:21.499Z,1.90
2019-01-02T12:53:02.116Z,1.80
2019-01-02T12:55:43.320Z,1.57
2019-01-02T12:58:24.059Z,1.70
2019-01-02T13:01:04.783Z,1.87
2019-01-02T13:03:45.526Z,2.05
2019-01-02T13:06:25.923Z,1.85
2019-01-02T13:09:06.348Z,1.80
2019-01-02T13:11:46.999Z,1.67
2019-01-02T13:14:27.554Z,1.90
2019-01-02T13:17:08.424Z,2.00
2019-01-02T13:19:49.054Z,1.98
2019-01-02T13:22:29.618Z,1.87
2019-01-02T13:25:10.240Z,2.05
2019-01-02T13:27:51.597Z,2.10
2019-01-02T13:30:32.290Z,1.95
2019-01-02T13:33:13.414Z,2.05
2019-01-02T13:35:54.698Z,2.08
2019-01-02T13:38:35.250Z,2.25
2019-01-02T13:41:16.439Z,2.10
2019-01-02T13:43:57.635Z,2.35
2019-01-02T13:46:38.563Z,1.90
2019-01-02T13:49:19.084Z,2.00
2019-01-02T13:52:00.173Z,2.47
2019-01-02T13:54:31.059Z,1.80
2019-01-02T13:57:19.181Z,2.05
2019-01-02T14:00:07.878Z,2.60
2019-01-02T14:02:49.264Z,2.20
2019-01-02T14:05:30.058Z,2.50
2019-01-02T14:08:11.497Z,2.30
2019-01-02T14:10:51.874Z,2.40
2019-01-02T14:13:32.554Z,2.47
2019-01-02T14:16:13.460Z,2.30
2019-01-02T14:18:54.641Z,2.55
2019-01-02T14:21:35.754Z,2.05
2019-01-02T14:24:04.718Z,2.20
2019-01-02T14:26:52.840Z,2.37
2019-01-02T14:29:33.447Z,2.35
2019-01-02T14:32:14.856Z,2.52
2019-01-02T14:34:55.686Z,2.55
2019-01-02T14:37:36.750Z,2.77
2019-01-02T14:40:17.612Z,2.40
2019-01-02T14:42:59.134Z,3.35
2019-01-02T14:45:39.718Z,2.20
2019-01-02T14:48:20.328Z,2.17
2019-01-02T14:51:01.576Z,2.42
2019-01-02T14:53:43.871Z,2.00
2019-01-02T14:56:25.002Z,1.95
2019-01-02T14:59:05.693Z,2.45
2019-01-02T15:01:46.407Z,2.80
2019-01-02T15:04:27.409Z,2.20
2019-01-02T15:06:57.125Z,2.47
2019-01-02T15:09:45.886Z,2.10
2019-01-02T15:12:27.438Z,2.60
2019-01-02T15:15:08.577Z,3.22
2019-01-02T15:17:49.332Z,2.27
2019-01-02T15:20:30.656Z,2.45
2019-01-02T15:23:11.425Z,2.10
2019-01-02T15:25:52.124Z,1.95
2019-01-02T15:28:32.989Z,2.12
2019-01-02T15:31:13.691Z,2.30
2019-01-02T15:33:55.583Z,2.30
2019-01-02T15:36:36.743Z,2.15
2019-01-02T15:39:17.136Z,1.92
2019-01-02T15:41:57.971Z,2.25
2019-01-02T15:44:38.733Z,2.10
2019-01-02T15:47:20.293Z,2.37
2019-01-02T15:50:00.825Z,2.25
2019-01-02T15:52:41.535Z,2.22
2019-01-02T15:55:22.413Z,2.17
2019-01-02T15:58:03.310Z,2.25
2019-01-02T16:00:32.164Z,2.42
2019-01-02T16:03:20.331Z,2.45
2019-01-02T16:06:08.477Z,2.30
2019-01-02T16:08:49.410Z,2.02
2019-01-02T16:11:29.871Z,2.10
2019-01-02T16:14:16.785Z,2.55
2019-01-02T16:16:53.765Z,2.40
2019-01-02T16:19:34.230Z,2.60
2019-01-02T16:22:15.715Z,2.33
2019-01-02T16:24:57.174Z,2.45
2019-01-02T16:27:38.147Z,2.30
2019-01-02T16:30:19.416Z,2.87
2019-01-02T16:32:59.954Z,2.40
2019-01-02T16:35:41.599Z,2.60
2019-01-02T16:38:22.545Z,2.30
2019-01-02T16:41:03.843Z,2.10
2019-01-02T16:43:45.787Z,2.50
2019-01-02T16:46:26.562Z,2.60
2019-01-02T16:49:07.961Z,2.22
2019-01-02T16:51:49.078Z,2.87
2019-01-02T16:54:29.523Z,2.25
2019-01-02T16:57:10.554Z,2.42
2019-01-02T16:59:51.875Z,2.70
2019-01-02T17:02:33.332Z,2.20
2019-01-02T17:05:14.866Z,2.50
2019-01-02T17:07:55.347Z,2.30
2019-01-02T17:10:36.476Z,2.00
2019-01-02T17:13:17.429Z,2.30
2019-01-02T17:15:59.076Z,2.63
2019-01-02T17:18:39.747Z,2.55
2019-01-02T17:21:20.613Z,2.02
2019-01-02T17:24:01.611Z,2.45
2019-01-02T17:26:42.942Z,2.30
2019-01-02T17:29:24.114Z,2.45
2019-01-02T17:32:05.303Z,2.40
2019-01-02T17:34:46.147Z,2.20
2019-01-02T17:37:27.318Z,2.40
2019-01-02T17:40:07.742Z,2.20
2019-01-02T17:42:48.892Z,2.40
2019-01-02T17:45:30.508Z,2.45
2019-01-02T17:48:11.974Z,2.40
2019-01-02T17:50:53.271Z,1.98
2019-01-02T17:53:34.395Z,2.33
2019-01-02T17:56:15.420Z,2.87
2019-01-02T17:58:56.267Z,2.30
2019-01-02T18:01:36.768Z,2.42
2019-01-02T18:04:18.341Z,2.80
2019-01-02T18:06:58.998Z,3.67
2019-01-02T18:09:39.979Z,3.05
2019-01-02T18:12:21.131Z,2.75
2019-01-02T18:15:02.641Z,2.40
2019-01-02T18:17:43.381Z,2.77
2019-01-02T18:20:24.781Z,2.40
2019-01-02T18:23:06.047Z,2.30
2019-01-02T18:25:46.848Z,2.75
2019-01-02T18:28:27.404Z,2.80
2019-01-02T18:31:08.062Z,2.87
2019-01-02T18:33:48.906Z,2.97
2019-01-02T18:36:29.818Z,2.70
2019-01-02T18:39:10.684Z,2.47
2019-01-02T18:41:39.919Z,2.67
2019-01-02T18:44:28.002Z,3.02
2019-01-02T18:46:56.930Z,2.67
2019-01-02T18:49:45.158Z,2.70
2019-01-02T18:52:26.158Z,2.80
2019-01-02T18:55:06.782Z,2.67
2019-01-02T18:57:47.505Z,2.70
2019-01-02T19:00:28.272Z,2.40
2019-01-02T19:02:57.426Z,2.65
2019-01-02T19:05:45.729Z,2.57
2019-01-02T19:08:34.143Z,2.75
2019-01-02T19:11:14.569Z,3.00
2019-01-02T19:13:55.974Z,2.80
2019-01-02T19:16:36.677Z,2.77
2019-01-02T19:19:17.528Z,2.87
2019-01-02T19:21:58.897Z,2.70
2019-01-02T19:24:39.492Z,2.90
2019-01-02T19:27:21.046Z,2.70
2019-01-02T19:30:02.359Z,2.90
2019-01-02T19:32:43.290Z,2.70
2019-01-02T19:35:23.990Z,2.70
2019-01-02T19:38:05.233Z,2.80
2019-01-02T19:40:46.009Z,2.92
2019-01-02T19:43:27.079Z,3.08
2019-01-02T19:46:08.018Z,3.12
2019-01-02T19:48:49.101Z,3.17
2019-01-02T19:51:30.076Z,2.90
2019-01-02T19:54:11.157Z,2.95
2019-01-02T19:56:52.961Z,2.98
2019-01-02T19:59:33.590Z,3.10
2019-01-02T20:02:14.435Z,3.08
2019-01-02T20:04:55.582Z,2.80
2019-01-02T20:07:36.413Z,2.87
2019-01-02T20:10:17.083Z,2.60
2019-01-02T20:12:57.901Z,2.95
2019-01-02T20:15:40.069Z,2.70
2019-01-02T20:18:20.967Z,3.33
2019-01-02T20:21:01.760Z,3.17
2019-01-02T20:23:42.731Z,3.20
2019-01-02T20:26:23.866Z,3.00
2019-01-02T20:29:05.095Z,3.30
2019-01-02T20:31:46.104Z,3.33
2019-01-02T20:34:27.355Z,3.05
2019-01-02T20:37:08.768Z,2.85
2019-01-02T20:39:50.299Z,3.42
2019-01-02T20:42:30.961Z,2.90
2019-01-02T20:45:11.673Z,3.00
2019-01-02T20:47:52.396Z,3.27
2019-01-02T20:50:33.107Z,3.20
2019-01-02T20:53:13.910Z,2.60
2019-01-02T20:55:54.558Z,3.07
2019-01-02T20:58:35.913Z,3.00
2019-01-02T21:01:17.153Z,3.12
2019-01-02T21:03:57.735Z,3.45
2019-01-02T21:06:38.275Z,3.00
2019-01-02T21:09:18.825Z,3.47
2019-01-02T21:11:59.703Z,3.10
2019-01-02T21:14:40.195Z,3.92
2019-01-02T21:17:20.974Z,3.90
2019-01-02T21:20:01.707Z,3.40
2019-01-02T21:22:42.267Z,3.85
2019-01-02T21:25:23.793Z,3.60
2019-01-02T21:28:04.458Z,3.55
2019-01-02T21:30:45.018Z,4.65
2019-01-02T21:33:25.901Z,4.37
2019-01-02T21:36:06.970Z,3.70
2019-01-02T21:41:40.216Z,3.75
2019-01-02T21:44:20.694Z,3.87
2019-01-02T21:47:01.290Z,3.42
2019-01-02T21:49:41.915Z,3.70
2019-01-02T21:52:22.490Z,3.98
2019-01-02T21:55:03.254Z,3.70
2019-01-02T21:57:44.047Z,3.50
2019-01-02T22:00:25.028Z,3.50
2019-01-02T22:03:05.929Z,5.15
2019-01-02T22:05:46.701Z,3.45
2019-01-02T22:08:27.412Z,3.80
2019-01-02T22:11:07.990Z,3.47
2019-01-02T22:13:48.803Z,3.25
2019-01-02T22:16:31.092Z,3.17
2019-01-02T22:19:12.104Z,3.35
2019-01-02T22:21:52.859Z,3.25
2019-01-02T22:24:34.395Z,3.50
2019-01-02T22:27:15.704Z,3.67
2019-01-02T22:29:56.282Z,3.17
2019-01-02T22:32:36.675Z,3.37
2019-01-02T22:35:18.235Z,3.40
2019-01-02T22:37:59.059Z,4.00
2019-01-02T22:40:40.063Z,3.12
2019-01-02T22:43:20.968Z,3.40
2019-01-02T22:46:01.858Z,4.05
2019-01-02T22:48:42.511Z,4.12
2019-01-02T22:51:23.559Z,3.30
2019-01-02T22:54:04.473Z,3.47
2019-01-02T22:56:45.343Z,3.22
2019-01-02T22:59:25.785Z,3.30
2019-01-02T23:02:15.321Z,3.25
2019-01-02T23:05:18.398Z,2.90
2019-01-02T23:08:17.908Z,3.10
2019-01-02T23:11:21.251Z,3.25
2019-01-02T23:14:19.228Z,3.00
2019-01-02T23:17:25.139Z,3.25
2019-01-02T23:20:24.680Z,3.62
2019-01-02T23:23:24.590Z,3.10
2019-01-02T23:26:25.087Z,3.40
2019-01-02T23:29:27.643Z,4.33
2019-01-02T23:32:27.820Z,3.00
2019-01-02T23:35:27.442Z,3.37
2019-01-02T23:38:27.058Z,3.55
2019-01-02T23:41:27.375Z,3.30
2019-01-02T23:44:27.174Z,3.22
2019-01-02T23:47:23.903Z,3.20
2019-01-02T23:50:27.050Z,3.40
2019-01-02T23:53:33.141Z,2.90
2019-01-02T23:56:33.186Z,2.90
2019-01-02T23:59:32.834Z,3.98
